Terminal Aerodrome Forecast
Issued by NWS

Home | Current Version | Previous Version | Text Only | Print | Product List | Glossary On
Versions: 1 2 3 4 5 6 7 8 9 10 11 12 13 14 15
000
FTUS43 KEAX 151700
TAFSTJ
TAF
KSTJ 151738Z 1518/1618 VRB05KT P6SM SKC
     FM152100 18008KT P6SM FEW200
     FM160300 16012KT P6SM BKN200
     FM160700 17014KT P6SM BKN200 WS018/19045KT
     FM161400 20025G35KT P6SM SCT200=

USA.gov is the U.S. government's official web portal to all federal, state and local government web resources and services.